createdAt,value
2023-06-04T00:01:15.965Z,98191.44
2023-06-04T00:04:33.881Z,98195.25
2023-06-04T00:07:37.767Z,98188.53
2023-06-04T00:10:41.689Z,98183.91
2023-06-04T00:13:45.694Z,98186.00
2023-06-04T00:16:50.882Z,98188.56
2023-06-04T00:19:55.042Z,98179.31
2023-06-04T00:22:58.683Z,98191.66
2023-06-04T00:26:02.637Z,98186.50
2023-06-04T00:29:06.173Z,98182.44
2023-06-04T00:32:11.973Z,98178.81
2023-06-04T00:35:16.383Z,98188.56
2023-06-04T00:38:20.633Z,98191.09
2023-06-04T00:41:24.380Z,98192.81
2023-06-04T00:44:28.322Z,98183.88
2023-06-04T00:47:33.465Z,98189.19
2023-06-04T00:50:39.604Z,98182.22
2023-06-04T00:53:43.264Z,98176.41
2023-06-04T00:56:49.943Z,98175.19
2023-06-04T00:59:53.532Z,98175.47
2023-06-04T01:03:04.241Z,98171.13
2023-06-04T01:06:15.541Z,98172.41
2023-06-04T01:09:20.821Z,98180.59
2023-06-04T01:12:24.852Z,98176.25
2023-06-04T01:15:28.819Z,98183.34
2023-06-04T01:18:37.503Z,98176.75
2023-06-04T01:21:45.991Z,98180.34
2023-06-04T01:24:58.408Z,98180.09
2023-06-04T01:28:04.497Z,98176.97
2023-06-04T01:31:10.000Z,98176.47
2023-06-04T01:34:15.766Z,98179.00
2023-06-04T01:37:19.708Z,98186.13
2023-06-04T01:40:25.122Z,98175.19
2023-06-04T01:43:29.077Z,98178.06
2023-06-04T01:46:33.980Z,98183.00
2023-06-04T01:49:39.301Z,98183.34
2023-06-04T01:52:43.498Z,98193.88
2023-06-04T01:55:47.242Z,98186.44
2023-06-04T01:58:51.277Z,98189.03
2023-06-04T02:01:54.875Z,98189.59
2023-06-04T02:05:00.322Z,98192.09
2023-06-04T02:08:05.946Z,98179.00
2023-06-04T02:11:09.968Z,98177.19
2023-06-04T02:14:13.482Z,98173.13
2023-06-04T02:17:17.746Z,98180.47
2023-06-04T02:20:22.789Z,98184.31
2023-06-04T02:23:26.930Z,98182.25
2023-06-04T02:26:31.448Z,98191.09
2023-06-04T02:29:35.430Z,98191.31
2023-06-04T02:32:40.435Z,98195.84
2023-06-04T02:35:46.052Z,98190.66
2023-06-04T02:38:50.794Z,98194.63
2023-06-04T02:41:55.463Z,98187.09
2023-06-04T02:44:59.054Z,98189.78
2023-06-04T02:48:03.540Z,98177.97
2023-06-04T02:51:11.274Z,98192.25
2023-06-04T02:54:15.406Z,98191.13
2023-06-04T02:57:19.232Z,98188.63
2023-06-04T03:00:23.459Z,98198.94
2023-06-04T03:03:28.033Z,98193.09
2023-06-04T03:06:33.683Z,98207.41
2023-06-04T03:09:37.170Z,98198.66
2023-06-04T03:12:42.217Z,98200.28
2023-06-04T03:15:47.875Z,98195.97
2023-06-04T03:18:52.591Z,98185.72
2023-06-04T03:21:58.029Z,98192.41
2023-06-04T03:25:03.336Z,98199.72
2023-06-04T03:28:06.988Z,98202.88
2023-06-04T03:31:11.291Z,98197.78
2023-06-04T03:34:15.229Z,98191.38
2023-06-04T03:37:20.876Z,98209.31
2023-06-04T03:40:24.915Z,98215.44
2023-06-04T03:43:29.466Z,98216.97
2023-06-04T03:46:38.068Z,98213.31
2023-06-04T03:49:42.236Z,98206.91
2023-06-04T03:52:47.873Z,98212.09
2023-06-04T03:55:51.868Z,98217.38
2023-06-04T03:58:55.737Z,98209.75
2023-06-04T04:02:01.307Z,98206.06
2023-06-04T04:05:06.484Z,98206.81
2023-06-04T04:08:12.737Z,98202.88
2023-06-04T04:11:17.317Z,98205.94
2023-06-04T04:14:21.591Z,98205.44
2023-06-04T04:17:25.362Z,98213.28
2023-06-04T04:20:29.236Z,98209.16
2023-06-04T04:23:41.124Z,98213.28
2023-06-04T04:26:46.017Z,98217.69
2023-06-04T04:29:49.672Z,98229.34
2023-06-04T04:32:53.847Z,98224.34
2023-06-04T04:36:13.853Z,98225.19
2023-06-04T04:39:25.705Z,98231.06
2023-06-04T04:42:31.629Z,98232.56
2023-06-04T04:45:36.517Z,98230.00
2023-06-04T04:48:43.570Z,98221.09
2023-06-04T04:51:47.718Z,98223.09
2023-06-04T04:54:56.912Z,98226.16
2023-06-04T04:58:02.473Z,98230.81
2023-06-04T05:01:06.404Z,98229.28
2023-06-04T05:04:10.450Z,98232.72
2023-06-04T05:07:16.520Z,98224.00
2023-06-04T05:10:40.107Z,98233.94
2023-06-04T05:13:45.068Z,98242.91
2023-06-04T05:16:50.914Z,98245.22
2023-06-04T05:19:55.861Z,98235.47
2023-06-04T05:22:59.959Z,98244.47
2023-06-04T05:26:05.555Z,98246.50
2023-06-04T05:29:10.097Z,98240.44
2023-06-04T05:32:19.051Z,98252.47
2023-06-04T05:35:23.399Z,98247.41
2023-06-04T05:38:27.859Z,98251.78
2023-06-04T05:41:37.708Z,98256.63
2023-06-04T05:44:42.226Z,98269.22
2023-06-04T05:47:50.396Z,98271.25
2023-06-04T05:50:54.104Z,98280.75
2023-06-04T05:53:58.461Z,98272.31
2023-06-04T05:57:03.676Z,98292.56
2023-06-04T06:00:11.867Z,98285.63
2023-06-04T06:03:18.639Z,98296.16
2023-06-04T06:06:25.422Z,98296.66
2023-06-04T06:09:28.964Z,98295.06
2023-06-04T06:12:34.570Z,98302.28
2023-06-04T06:15:38.342Z,98309.19
2023-06-04T06:18:42.970Z,98309.69
2023-06-04T06:21:46.739Z,98317.88
2023-06-04T06:24:52.010Z,98309.22
2023-06-04T06:27:57.382Z,98317.38
2023-06-04T06:31:03.183Z,98318.09
2023-06-04T06:34:06.813Z,98320.34
2023-06-04T06:37:10.890Z,98307.69
2023-06-04T06:40:14.528Z,98310.16
2023-06-04T06:43:19.763Z,98318.97
2023-06-04T06:46:24.937Z,98319.03
2023-06-04T06:49:35.512Z,98323.53
2023-06-04T06:52:39.337Z,98324.16
2023-06-04T06:55:43.348Z,98320.09
2023-06-04T06:58:48.581Z,98314.47
2023-06-04T07:01:53.170Z,98328.41
2023-06-04T07:04:56.968Z,98328.78
2023-06-04T07:08:02.081Z,98322.78
2023-06-04T07:11:06.069Z,98319.03
2023-06-04T07:14:11.441Z,98324.94
2023-06-04T07:17:16.679Z,98317.19
2023-06-04T07:20:21.235Z,98324.38
2023-06-04T07:23:25.435Z,98320.75
2023-06-04T07:26:34.107Z,98323.63
2023-06-04T07:29:39.946Z,98316.28
2023-06-04T07:32:47.999Z,98332.38
2023-06-04T07:35:51.724Z,98323.72
2023-06-04T07:38:55.626Z,98321.69
2023-06-04T07:41:59.202Z,98322.63
2023-06-04T07:45:04.561Z,98334.81
2023-06-04T07:48:08.395Z,98333.91
2023-06-04T07:51:12.602Z,98331.72
2023-06-04T07:54:18.151Z,98326.94
2023-06-04T07:57:22.103Z,98325.41
2023-06-04T08:00:27.263Z,98327.13
2023-06-04T08:03:31.340Z,98327.81
2023-06-04T08:06:34.945Z,98337.00
2023-06-04T08:09:39.330Z,98334.03
2023-06-04T08:12:42.939Z,98329.69
2023-06-04T08:15:48.167Z,98347.47
2023-06-04T08:19:11.854Z,98346.13
2023-06-04T08:22:22.064Z,98345.50
2023-06-04T08:25:37.599Z,98341.16
2023-06-04T08:29:05.299Z,98353.38
2023-06-04T08:32:14.869Z,98343.84
2023-06-04T08:35:29.872Z,98345.19
2023-06-04T08:38:33.446Z,98345.44
2023-06-04T08:41:44.800Z,98351.28
2023-06-04T08:44:52.188Z,98349.41
2023-06-04T08:47:58.322Z,98344.28
2023-06-04T08:51:04.043Z,98339.25
2023-06-04T08:54:08.769Z,98339.41
2023-06-04T08:57:13.171Z,98342.78
2023-06-04T09:00:19.358Z,98343.53
2023-06-04T09:03:25.679Z,98351.09
2023-06-04T09:06:29.948Z,98349.66
2023-06-04T09:09:34.098Z,98345.63
2023-06-04T09:12:42.401Z,98346.53
2023-06-04T09:15:46.192Z,98342.78
2023-06-04T09:18:53.898Z,98341.41
2023-06-04T09:21:58.735Z,98343.59
2023-06-04T09:25:03.306Z,98353.50
2023-06-04T09:28:08.656Z,98344.59
2023-06-04T09:31:16.178Z,98353.38
2023-06-04T09:34:29.738Z,98348.25
2023-06-04T09:37:34.386Z,98349.06
2023-06-04T09:40:39.576Z,98344.91
2023-06-04T09:43:44.990Z,98344.59
2023-06-04T09:46:55.957Z,98335.69
2023-06-04T09:50:01.223Z,98351.59
2023-06-04T09:53:15.362Z,98341.94
2023-06-04T09:56:19.175Z,98347.56
2023-06-04T09:59:22.820Z,98346.63
2023-06-04T10:02:31.960Z,98347.34
2023-06-04T10:05:38.149Z,98352.13
2023-06-04T10:08:45.022Z,98352.22
2023-06-04T10:11:58.499Z,98352.13
2023-06-04T10:15:09.939Z,98351.81
2023-06-04T10:18:14.059Z,98357.72
2023-06-04T10:21:20.480Z,98351.38
2023-06-04T10:24:25.521Z,98346.88
2023-06-04T10:27:30.686Z,98348.28
2023-06-04T10:30:34.740Z,98354.53
2023-06-04T10:33:41.265Z,98344.50
2023-06-04T10:36:47.521Z,98335.41
2023-06-04T10:39:56.342Z,98341.09
2023-06-04T10:43:07.611Z,98334.47
2023-06-04T10:46:16.052Z,98333.06
2023-06-04T10:49:29.191Z,98329.63
2023-06-04T10:52:34.672Z,98330.03
2023-06-04T10:55:46.229Z,98335.78
2023-06-04T10:58:50.225Z,98331.53
2023-06-04T11:01:54.112Z,98322.44
2023-06-04T11:05:04.399Z,98318.41
2023-06-04T11:08:10.910Z,98318.19
2023-06-04T11:11:15.730Z,98327.78
2023-06-04T11:14:19.484Z,98315.56
2023-06-04T11:17:23.597Z,98303.09
2023-06-04T11:20:27.271Z,98307.56
2023-06-04T11:23:32.705Z,98303.03
2023-06-04T11:26:40.365Z,98299.69
2023-06-04T11:29:45.193Z,98302.91
2023-06-04T11:32:49.067Z,98308.72
2023-06-04T11:35:53.171Z,98309.41
2023-06-04T11:39:00.089Z,98307.25
2023-06-04T11:42:08.197Z,98299.31
2023-06-04T11:45:12.794Z,98298.66
2023-06-04T11:48:17.343Z,98306.94
2023-06-04T11:51:22.139Z,98309.47
2023-06-04T11:54:27.575Z,98308.59
2023-06-04T11:57:32.375Z,98303.03
2023-06-04T12:00:36.561Z,98305.06
2023-06-04T12:03:41.312Z,98304.38
2023-06-04T12:07:06.494Z,98303.28
2023-06-04T12:10:12.987Z,98298.81
2023-06-04T12:13:17.064Z,98305.09
2023-06-04T12:16:20.686Z,98301.59
2023-06-04T12:19:24.757Z,98285.69
2023-06-04T12:22:28.674Z,98294.13
2023-06-04T12:25:35.619Z,98296.22
2023-06-04T12:28:39.299Z,98282.13
2023-06-04T12:31:45.031Z,98297.63
2023-06-04T12:34:49.371Z,98283.75
2023-06-04T12:37:53.183Z,98274.88
2023-06-04T12:40:58.762Z,98277.06
2023-06-04T12:44:03.541Z,98268.59
2023-06-04T12:47:07.711Z,98260.28
2023-06-04T12:50:12.525Z,98261.56
2023-06-04T12:53:16.169Z,98251.28
2023-06-04T12:56:21.484Z,98256.72
2023-06-04T12:59:25.160Z,98242.00
2023-06-04T13:02:29.180Z,98244.69
2023-06-04T13:05:33.050Z,98235.25
2023-06-04T13:08:38.070Z,98229.03
2023-06-04T13:11:45.456Z,98230.28
2023-06-04T13:14:49.803Z,98227.06
2023-06-04T13:17:53.439Z,98228.50
2023-06-04T13:20:58.087Z,98237.34
2023-06-04T13:24:01.857Z,98230.63
2023-06-04T13:27:07.609Z,98231.00
2023-06-04T13:30:12.313Z,98231.78
2023-06-04T13:33:16.817Z,98233.97
2023-06-04T13:36:20.478Z,98220.16
2023-06-04T13:39:24.619Z,98228.28
2023-06-04T13:42:30.683Z,98221.53
2023-06-04T13:45:35.153Z,98233.78
2023-06-04T13:48:38.706Z,98232.25
2023-06-04T13:51:43.113Z,98235.94
2023-06-04T13:54:46.752Z,98234.81
2023-06-04T13:57:52.130Z,98233.47
2023-06-04T14:00:56.689Z,98231.28
2023-06-04T14:04:01.023Z,98232.78
2023-06-04T14:07:04.935Z,98233.91
2023-06-04T14:10:10.711Z,98224.44
2023-06-04T14:13:15.850Z,98216.63
2023-06-04T14:16:19.864Z,98220.13
2023-06-04T14:19:24.146Z,98233.50
2023-06-04T14:22:28.312Z,98237.09
2023-06-04T14:25:34.084Z,98224.19
2023-06-04T14:28:39.679Z,98230.28
2023-06-04T14:31:43.393Z,98236.25
2023-06-04T14:34:48.448Z,98230.41
2023-06-04T14:37:52.095Z,98224.38
2023-06-04T14:40:57.103Z,98226.53
2023-06-04T14:44:02.373Z,98219.53
2023-06-04T14:47:07.116Z,98227.25
2023-06-04T14:50:11.644Z,98214.97
2023-06-04T14:53:15.773Z,98219.72
2023-06-04T14:56:19.953Z,98209.63
2023-06-04T14:59:25.842Z,98197.31
2023-06-04T15:02:30.738Z,98207.00
2023-06-04T15:05:34.856Z,98199.31
2023-06-04T15:08:38.766Z,98209.31
2023-06-04T15:11:42.644Z,98214.69
2023-06-04T15:14:47.712Z,98211.63
2023-06-04T15:17:52.298Z,98207.69
2023-06-04T15:20:56.368Z,98197.75
2023-06-04T15:24:00.940Z,98206.34
2023-06-04T15:27:06.043Z,98206.34
2023-06-04T15:30:15.380Z,98192.16
2023-06-04T15:33:19.489Z,98189.19
2023-06-04T15:36:23.829Z,98181.50
2023-06-04T15:39:27.560Z,98189.31
2023-06-04T15:42:31.546Z,98184.66
2023-06-04T15:45:36.547Z,98176.00
2023-06-04T15:48:41.025Z,98163.44
2023-06-04T15:51:45.524Z,98170.75
2023-06-04T15:54:49.731Z,98167.94
2023-06-04T15:57:53.289Z,98165.69
2023-06-04T16:01:01.220Z,98168.88
2023-06-04T16:04:05.093Z,98188.66
2023-06-04T16:07:08.907Z,98181.75
2023-06-04T16:10:12.557Z,98182.28
2023-06-04T16:13:16.671Z,98191.28
2023-06-04T16:16:21.924Z,98193.44
2023-06-04T16:19:26.166Z,98191.22
2023-06-04T16:22:29.873Z,98179.31
2023-06-04T16:25:33.851Z,98191.16
2023-06-04T16:28:37.848Z,98202.16
2023-06-04T16:31:45.925Z,98194.06
2023-06-04T16:34:49.870Z,98185.47
2023-06-04T16:37:53.899Z,98186.66
2023-06-04T16:40:57.537Z,98192.91
2023-06-04T16:44:01.470Z,98190.66
2023-06-04T16:47:06.773Z,98184.03
2023-06-04T16:50:12.321Z,98185.94
2023-06-04T16:53:16.169Z,98192.19
2023-06-04T16:56:20.310Z,98196.84
2023-06-04T16:59:23.983Z,98190.41
2023-06-04T17:02:29.787Z,98186.44
2023-06-04T17:05:34.178Z,98193.72
2023-06-04T17:08:38.830Z,98197.22
2023-06-04T17:11:44.671Z,98191.53
2023-06-04T17:14:49.059Z,98191.22
2023-06-04T17:17:55.829Z,98193.31
2023-06-04T17:21:00.207Z,98206.31
2023-06-04T17:24:05.603Z,98200.47
2023-06-04T17:27:11.328Z,98211.09
2023-06-04T17:30:15.394Z,98211.13
2023-06-04T17:33:21.998Z,98211.72
2023-06-04T17:36:25.734Z,98225.94
2023-06-04T17:39:30.862Z,98216.56
2023-06-04T17:42:34.980Z,98217.56
2023-06-04T17:45:39.281Z,98212.47
2023-06-04T17:48:44.512Z,98210.91
2023-06-04T17:51:48.556Z,98215.00
2023-06-04T17:54:52.398Z,98218.56
2023-06-04T17:57:56.843Z,98215.00
2023-06-04T18:01:00.740Z,98213.22
2023-06-04T18:04:07.161Z,98229.91
2023-06-04T18:07:18.421Z,98222.63
2023-06-04T18:10:29.109Z,98220.63
2023-06-04T18:13:39.065Z,98219.06
2023-06-04T18:16:49.763Z,98227.88
2023-06-04T18:19:54.678Z,98218.34
2023-06-04T18:22:58.853Z,98217.53
2023-06-04T18:26:02.564Z,98217.06
2023-06-04T18:29:06.660Z,98219.59
2023-06-04T18:32:11.929Z,98221.56
2023-06-04T18:35:37.536Z,98221.63
2023-06-04T18:38:41.295Z,98216.47
2023-06-04T18:41:50.837Z,98224.16
2023-06-04T18:44:58.613Z,98238.19
2023-06-04T18:48:02.892Z,98232.16
2023-06-04T18:51:08.201Z,98234.63
2023-06-04T18:54:13.430Z,98238.28
2023-06-04T18:57:17.098Z,98241.13
2023-06-04T19:00:22.746Z,98248.53
2023-06-04T19:03:26.795Z,98252.75
2023-06-04T19:06:38.242Z,98265.72
2023-06-04T19:09:42.310Z,98260.31
2023-06-04T19:12:46.224Z,98262.47
2023-06-04T19:15:53.660Z,98268.44
2023-06-04T19:18:57.903Z,98280.22
2023-06-04T19:22:03.858Z,98285.88
2023-06-04T19:25:10.065Z,98293.81
2023-06-04T19:28:16.998Z,98288.16
2023-06-04T19:31:21.270Z,98286.84
2023-06-04T19:34:43.548Z,98296.28
2023-06-04T19:38:04.010Z,98295.47
2023-06-04T19:41:11.640Z,98293.97
2023-06-04T19:44:16.702Z,98292.47
2023-06-04T19:47:29.212Z,98287.78
2023-06-04T19:50:46.487Z,98298.28
2023-06-04T19:54:06.678Z,98291.63
2023-06-04T19:57:16.655Z,98286.00
2023-06-04T20:00:24.409Z,98286.28
2023-06-04T20:03:32.487Z,98297.06
2023-06-04T20:06:36.241Z,98301.13
2023-06-04T20:09:42.962Z,98302.72
2023-06-04T20:12:51.858Z,98305.53
2023-06-04T20:15:58.454Z,98293.47
2023-06-04T20:19:02.002Z,98293.28
2023-06-04T20:22:08.684Z,98297.84
2023-06-04T20:25:14.465Z,98294.28
2023-06-04T20:28:18.465Z,98293.25
2023-06-04T20:31:27.160Z,98303.88
2023-06-04T20:34:42.675Z,98300.00
2023-06-04T20:37:47.673Z,98297.94
2023-06-04T20:40:53.225Z,98291.78
2023-06-04T20:43:57.179Z,98288.69
2023-06-04T20:47:06.561Z,98285.31
2023-06-04T20:50:11.382Z,98291.50
2023-06-04T20:53:16.614Z,98289.13
2023-06-04T20:56:22.118Z,98291.94
2023-06-04T20:59:32.288Z,98289.69
2023-06-04T21:02:36.214Z,98287.94
2023-06-04T21:05:40.592Z,98283.31
2023-06-04T21:08:44.410Z,98288.63
2023-06-04T21:11:53.891Z,98279.59
2023-06-04T21:15:04.841Z,98284.03
2023-06-04T21:18:15.213Z,98280.69
2023-06-04T21:21:20.835Z,98296.34
2023-06-04T21:24:25.510Z,98293.72
2023-06-04T21:27:30.677Z,98288.03
2023-06-04T21:30:34.464Z,98295.31
2023-06-04T21:33:38.051Z,98297.81
2023-06-04T21:36:42.746Z,98301.09
2023-06-04T21:39:46.819Z,98288.25
2023-06-04T21:42:52.544Z,98293.38
2023-06-04T21:45:56.527Z,98288.50
2023-06-04T21:49:00.954Z,98273.81
2023-06-04T21:52:10.545Z,98281.53
2023-06-04T21:55:19.853Z,98273.78
2023-06-04T21:58:24.957Z,98273.03
2023-06-04T22:01:28.916Z,98267.94
2023-06-04T22:04:32.590Z,98270.31
2023-06-04T22:07:36.712Z,98272.28
2023-06-04T22:10:40.358Z,98268.91
2023-06-04T22:13:46.141Z,98272.53
2023-06-04T22:16:49.730Z,98269.44
2023-06-04T22:19:53.613Z,98255.97
2023-06-04T22:22:57.214Z,98246.31
2023-06-04T22:26:01.096Z,98252.75
2023-06-04T22:29:06.394Z,98246.53
2023-06-04T22:32:10.274Z,98252.72
2023-06-04T22:35:14.093Z,98250.69
2023-06-04T22:38:19.134Z,98253.47
2023-06-04T22:41:23.277Z,98249.59
2023-06-04T22:44:28.965Z,98246.50
2023-06-04T22:47:32.877Z,98244.97
2023-06-04T22:50:39.052Z,98238.03
2023-06-04T22:53:42.633Z,98232.91
2023-06-04T22:56:46.473Z,98238.75
2023-06-04T22:59:52.521Z,98224.63
2023-06-04T23:02:56.894Z,98224.06
2023-06-04T23:06:14.154Z,98218.97
2023-06-04T23:09:22.162Z,98221.56
2023-06-04T23:12:25.686Z,98212.06
2023-06-04T23:15:31.157Z,98208.28
2023-06-04T23:18:35.480Z,98213.09
2023-06-04T23:21:39.951Z,98221.56
2023-06-04T23:24:43.510Z,98222.59
2023-06-04T23:27:47.794Z,98219.81
2023-06-04T23:30:52.804Z,98227.22
2023-06-04T23:33:57.197Z,98228.00
2023-06-04T23:37:01.599Z,98217.50
2023-06-04T23:40:07.334Z,98223.94
2023-06-04T23:43:11.415Z,98217.03
2023-06-04T23:46:18.168Z,98217.03
2023-06-04T23:49:21.904Z,98213.94
2023-06-04T23:52:25.991Z,98203.88
2023-06-04T23:55:29.489Z,98205.19
2023-06-04T23:58:33.709Z,98203.91
